Time;durP1;ratioP1;P1;durP2;ratioP2;P2;SDS_P1;SDS_P2;PMS_P1;PMS_P2;Temp;Humidity;BMP_temperature;BMP_pressure;BME280_temperature;BME280_humidity;BME280_pressure;Samples;Min_cycle;Max_cycle;Signal;HPM_P1;HPM_P2
2023/04/07 00:02:20;;;;;;;12.63;6.80;;;16.80;99.90;;;;;;5094881;28;20216;-72
2023/04/07 00:04:48;;;;;;;16.33;8.30;;;16.90;99.90;;;;;;5094798;28;20180;-72
2023/04/07 00:07:15;;;;;;;13.27;7.70;;;16.90;99.90;;;;;;5092820;28;20211;-72
2023/04/07 00:09:43;;;;;;;16.80;15.00;;;16.90;99.90;;;;;;5094720;28;20175;-69
2023/04/07 00:12:10;;;;;;;25.07;19.10;;;17.00;99.90;;;;;;5095059;28;20176;-71
2023/04/07 00:14:38;;;;;;;18.43;12.90;;;17.10;99.90;;;;;;5094875;28;20179;-72
2023/04/07 00:17:05;;;;;;;18.97;13.20;;;17.00;99.90;;;;;;5094512;28;20223;-72
2023/04/07 00:19:32;;;;;;;17.30;11.17;;;17.10;99.90;;;;;;5094745;28;20630;-73
2023/04/07 00:22:04;;;;;;;18.73;11.17;;;17.10;99.90;;;;;;5094753;28;20649;-72
2023/04/07 00:24:31;;;;;;;17.57;10.10;;;17.10;99.90;;;;;;5093027;28;20175;-72
2023/04/07 00:26:59;;;;;;;20.33;13.50;;;17.00;99.90;;;;;;5087651;28;20284;-69
2023/04/07 00:29:27;;;;;;;23.10;15.43;;;17.10;99.90;;;;;;5093134;28;20186;-73
2023/04/07 00:31:54;;;;;;;20.83;16.43;;;17.10;99.90;;;;;;5111138;28;20236;-72
2023/04/07 00:34:22;;;;;;;18.90;13.73;;;17.20;99.90;;;;;;5113115;28;20169;-71
2023/04/07 00:36:52;;;;;;;19.43;15.10;;;17.20;99.90;;;;;;5113565;28;20200;-74
2023/04/07 00:39:20;;;;;;;21.03;14.73;;;17.20;99.90;;;;;;5109194;28;20183;-74
2023/04/07 00:41:48;;;;;;;19.63;13.17;;;17.30;99.90;;;;;;5098436;28;20191;-72
2023/04/07 00:44:15;;;;;;;14.73;12.00;;;17.30;99.90;;;;;;5093108;28;20632;-72
2023/04/07 00:46:42;;;;;;;20.57;14.43;;;17.50;99.90;;;;;;5092931;28;20584;-73
2023/04/07 00:49:12;;;;;;;23.03;15.23;;;17.70;99.90;;;;;;5100264;28;20182;-73
2023/04/07 00:51:39;;;;;;;18.07;13.03;;;17.80;99.90;;;;;;5109367;28;20740;-73
2023/04/07 00:54:08;;;;;;;19.33;13.53;;;18.10;99.90;;;;;;5113016;28;20186;-72
2023/04/07 00:56:35;;;;;;;17.73;11.47;;;18.30;99.90;;;;;;5112565;28;20196;-72
2023/04/07 00:59:04;;;;;;;22.70;12.57;;;18.30;99.90;;;;;;5106085;28;20191;-70
2023/04/07 01:01:47;;;;;;;20.23;12.73;;;18.30;99.90;;;;;;5092823;28;20202;-70
2023/04/07 01:04:44;;;;;;;17.83;11.33;;;18.20;99.90;;;;;;5092594;28;20224;-71
2023/04/07 01:07:59;;;;;;;16.90;11.43;;;18.20;99.90;;;;;;5094511;28;20300;-74
2023/04/07 01:10:51;;;;;;;14.37;11.97;;;18.50;99.90;;;;;;5075417;28;20643;-72
2023/04/07 01:13:49;;;;;;;20.37;13.43;;;18.70;99.90;;;;;;5092448;28;20180;-73
2023/04/07 01:16:39;;;;;;;16.27;11.67;;;18.80;99.90;;;;;;5092189;28;20230;-73
2023/04/07 01:19:14;;;;;;;16.97;13.30;;;19.00;99.90;;;;;;5092283;28;20225;-73
2023/04/07 01:21:44;;;;;;;17.03;13.20;;;19.10;99.90;;;;;;5091099;28;20175;-72
2023/04/07 01:24:35;;;;;;;15.67;12.23;;;19.20;99.90;;;;;;5091909;28;20692;-72
2023/04/07 01:27:32;;;;;;;15.37;10.40;;;19.40;99.90;;;;;;5092484;28;20555;-72
2023/04/07 01:30:02;;;;;;;15.40;8.50;;;19.50;99.90;;;;;;5106326;28;20175;-73
2023/04/07 01:32:31;;;;;;;16.33;8.73;;;19.80;99.90;;;;;;5112270;28;20217;-73
2023/04/07 01:35:01;;;;;;;12.77;7.80;;;19.90;99.90;;;;;;5112210;28;20217;-71
2023/04/07 01:37:29;;;;;;;13.13;8.43;;;20.40;99.90;;;;;;5113762;28;20662;-72
2023/04/07 01:39:56;;;;;;;13.17;7.83;;;21.70;99.90;;;;;;5113278;28;20648;-67
2023/04/07 01:42:25;;;;;;;15.07;6.87;;;22.30;99.90;;;;;;5096644;28;20191;-67
2023/04/07 01:44:53;;;;;;;11.93;6.70;;;23.00;99.90;;;;;;5113357;28;20169;-70
2023/04/07 01:47:21;;;;;;;12.90;6.43;;;23.30;99.90;;;;;;5113441;28;20190;-70
2023/04/07 01:49:50;;;;;;;10.67;6.10;;;23.20;99.90;;;;;;5111219;28;20645;-71
2023/04/07 01:52:18;;;;;;;8.80;6.97;;;23.10;99.90;;;;;;5101644;28;20179;-71
2023/04/07 01:54:46;;;;;;;12.53;6.03;;;22.80;99.90;;;;;;5111447;28;20277;-69
2023/04/07 01:57:13;;;;;;;7.37;5.20;;;22.50;99.90;;;;;;5111666;28;20680;-69
2023/04/07 01:59:40;;;;;;;8.87;4.20;;;22.30;99.90;;;;;;5113444;28;20219;-69
2023/04/07 02:02:08;;;;;;;6.80;2.83;;;22.30;99.90;;;;;;5113545;28;20545;-70
2023/04/07 02:04:52;;;;;;;5.00;2.80;;;21.90;99.90;;;;;;5113183;28;20177;-69
2023/04/07 02:07:27;;;;;;;3.63;2.43;;;21.80;99.90;;;;;;5113778;28;20658;-70
2023/04/07 02:09:58;;;;;;;3.10;2.00;;;21.50;99.90;;;;;;5113139;28;20676;-69
2023/04/07 02:12:29;;;;;;;3.70;2.43;;;21.50;99.90;;;;;;5113302;28;20175;-69
2023/04/07 02:14:57;;;;;;;3.90;2.40;;;21.40;99.90;;;;;;5113460;28;20183;-71
2023/04/07 02:17:27;;;;;;;7.17;3.80;;;21.50;99.90;;;;;;5113041;28;20303;-71
2023/04/07 02:19:57;;;;;;;13.27;7.97;;;21.30;99.90;;;;;;5113236;28;20178;-70
2023/04/07 02:22:25;;;;;;;9.60;6.07;;;21.20;99.90;;;;;;5113322;28;20193;-71
2023/04/07 02:24:52;;;;;;;6.00;3.70;;;21.40;99.90;;;;;;5113151;28;20207;-71
2023/04/07 02:27:19;;;;;;;5.60;3.30;;;21.90;99.90;;;;;;5113335;28;20209;-71
2023/04/07 02:29:47;;;;;;;4.17;2.43;;;22.70;99.90;;;;;;5115412;28;20182;-70
2023/04/07 02:32:14;;;;;;;2.70;1.67;;;23.50;99.90;;;;;;5115763;28;20193;-70
2023/04/07 02:34:41;;;;;;;2.70;1.30;;;23.60;99.90;;;;;;5115578;28;20518;-71
2023/04/07 02:37:09;;;;;;;1.73;1.00;;;24.00;99.90;;;;;;5117123;28;20538;-71
2023/04/07 02:39:36;;;;;;;2.77;1.17;;;24.00;99.90;;;;;;5117018;28;20178;-71
2023/04/07 02:42:04;;;;;;;4.47;1.50;;;24.00;99.90;;;;;;5117087;28;20171;-71
2023/04/07 02:44:31;;;;;;;1.60;0.90;;;24.40;99.90;;;;;;5116793;28;20163;-70
2023/04/07 02:46:59;;;;;;;4.90;1.43;;;25.10;99.90;;;;;;5117076;28;20167;-71
2023/04/07 02:49:26;;;;;;;4.93;1.30;;;25.90;99.90;;;;;;5116701;27;20196;-70
2023/04/07 02:51:53;;;;;;;5.27;1.20;;;25.70;99.90;;;;;;5116671;28;20245;-71
2023/04/07 02:54:21;;;;;;;2.40;1.30;;;26.00;99.90;;;;;;5116762;28;20175;-71
2023/04/07 02:56:48;;;;;;;5.20;1.13;;;26.20;99.90;;;;;;5117341;28;20173;-70
2023/04/07 02:59:15;;;;;;;3.77;1.00;;;26.60;99.90;;;;;;5116854;28;20219;-71
2023/04/07 03:01:43;;;;;;;4.10;1.00;;;26.80;99.90;;;;;;5116563;28;20548;-70
2023/04/07 03:04:11;;;;;;;2.07;1.00;;;26.60;99.90;;;;;;5116542;28;20163;-70
2023/04/07 03:06:38;;;;;;;2.93;0.97;;;26.40;99.90;;;;;;5116829;28;20166;-71
2023/04/07 03:09:06;;;;;;;4.27;1.03;;;26.00;99.90;;;;;;5116451;28;20533;-71
2023/04/07 03:11:33;;;;;;;2.90;1.10;;;26.00;99.90;;;;;;5116402;28;20214;-71
2023/04/07 03:14:00;;;;;;;2.70;1.50;;;26.00;99.90;;;;;;5116358;28;20262;-71
2023/04/07 03:16:28;;;;;;;3.03;1.10;;;26.00;99.90;;;;;;5115967;28;20222;-71
2023/04/07 03:18:55;;;;;;;2.97;1.00;;;26.00;99.90;;;;;;5116822;28;20208;-70
2023/04/07 03:21:22;;;;;;;3.10;1.17;;;26.00;99.90;;;;;;5116324;28;20171;-71
2023/04/07 03:23:50;;;;;;;1.40;0.80;;;26.00;99.90;;;;;;5116414;27;20179;-70
2023/04/07 03:26:17;;;;;;;4.57;1.23;;;25.90;99.90;;;;;;5115955;28;20193;-70
2023/04/07 03:28:45;;;;;;;4.03;1.00;;;25.50;99.90;;;;;;5115862;28;20259;-71
2023/04/07 03:31:12;;;;;;;1.90;0.80;;;25.60;99.90;;;;;;5115575;28;20218;-71
2023/04/07 03:33:39;;;;;;;1.70;0.97;;;26.00;99.90;;;;;;5115996;28;20209;-71
2023/04/07 03:36:07;;;;;;;2.57;0.80;;;25.90;99.90;;;;;;5115902;28;20175;-71
2023/04/07 03:38:36;;;;;;;4.33;1.00;;;26.10;99.90;;;;;;5116071;28;20578;-71
2023/04/07 03:41:04;;;;;;;1.10;0.80;;;26.40;99.90;;;;;;5115584;28;20232;-71
2023/04/07 03:43:31;;;;;;;4.97;1.03;;;26.60;99.90;;;;;;5115841;28;20609;-70
2023/04/07 03:45:59;;;;;;;2.53;1.00;;;26.30;99.90;;;;;;5119317;28;20174;-71
2023/04/07 03:48:27;;;;;;;3.93;0.90;;;25.20;99.90;;;;;;5119590;28;20186;-71
2023/04/07 03:50:55;;;;;;;3.03;0.80;;;25.20;99.90;;;;;;5114429;28;20614;-71
2023/04/07 03:53:22;;;;;;;1.90;0.93;;;25.70;99.90;;;;;;5115758;28;20206;-70
2023/04/07 03:55:51;;;;;;;2.57;1.00;;;25.90;99.90;;;;;;5115512;28;20611;-71
2023/04/07 03:58:21;;;;;;;4.50;1.47;;;26.30;99.90;;;;;;5115451;28;20192;-71
2023/04/07 04:00:49;;;;;;;1.20;0.70;;;26.10;99.90;;;;;;5115420;28;20181;-71
2023/04/07 04:03:17;;;;;;;1.53;0.70;;;26.40;99.90;;;;;;5115244;28;20166;-70
2023/04/07 04:05:45;;;;;;;1.90;1.00;;;26.60;99.90;;;;;;5115107;28;20202;-70
2023/04/07 04:08:13;;;;;;;5.00;0.97;;;26.80;99.90;;;;;;5115170;28;20167;-70
2023/04/07 04:10:41;;;;;;;4.07;0.90;;;26.70;99.90;;;;;;5115123;28;20674;-70
2023/04/07 04:13:08;;;;;;;1.37;0.70;;;26.40;99.90;;;;;;5116348;28;20183;-71
2023/04/07 04:15:36;;;;;;;5.30;0.87;;;26.20;99.90;;;;;;5115129;28;20304;-70
2023/04/07 04:18:04;;;;;;;1.37;0.90;;;26.10;99.90;;;;;;5114778;28;20692;-70
2023/04/07 04:20:32;;;;;;;1.80;1.20;;;26.30;99.90;;;;;;5113557;28;20572;-70
2023/04/07 04:22:59;;;;;;;2.77;1.13;;;26.20;99.90;;;;;;5114715;28;20182;-71
2023/04/07 04:25:27;;;;;;;1.77;0.80;;;26.10;99.90;;;;;;5114768;28;20179;-70
2023/04/07 04:27:55;;;;;;;3.77;0.93;;;25.80;99.90;;;;;;5114688;28;20629;-70
2023/04/07 04:30:23;;;;;;;1.60;0.90;;;25.80;99.90;;;;;;5114614;28;20198;-71
2023/04/07 04:32:50;;;;;;;4.23;1.03;;;25.60;99.90;;;;;;5114706;28;20170;-70
2023/04/07 04:35:18;;;;;;;3.50;0.83;;;25.50;99.90;;;;;;5115023;28;20208;-70
2023/04/07 04:37:46;;;;;;;2.37;0.87;;;25.60;99.90;;;;;;5114494;28;20175;-71
2023/04/07 04:40:14;;;;;;;1.00;0.70;;;25.10;99.90;;;;;;5114540;28;20220;-71
2023/04/07 04:42:42;;;;;;;2.10;0.80;;;24.90;99.90;;;;;;5114612;28;20602;-71
2023/04/07 04:45:10;;;;;;;2.83;0.83;;;25.00;99.90;;;;;;5114502;28;20179;-71
2023/04/07 04:47:38;;;;;;;2.63;1.00;;;25.40;99.90;;;;;;5114322;28;20171;-71
2023/04/07 04:50:06;;;;;;;2.80;0.70;;;25.50;99.90;;;;;;5112814;28;20174;-71
2023/04/07 04:52:34;;;;;;;1.00;0.80;;;25.30;99.90;;;;;;5113615;28;20177;-71
2023/04/07 04:55:02;;;;;;;2.97;0.87;;;25.00;99.90;;;;;;5114275;28;20242;-70
2023/04/07 04:57:30;;;;;;;2.33;0.93;;;24.80;99.90;;;;;;5114470;28;20174;-71
2023/04/07 04:59:58;;;;;;;2.80;1.00;;;24.70;99.90;;;;;;5114063;28;20252;-71
2023/04/07 05:02:26;;;;;;;2.83;1.00;;;24.60;99.90;;;;;;5114348;27;20174;-72
2023/04/07 05:04:54;;;;;;;3.47;0.77;;;24.90;99.90;;;;;;5114040;28;20178;-71
2023/04/07 05:07:21;;;;;;;2.77;0.90;;;25.20;99.90;;;;;;5114151;28;20516;-71
2023/04/07 05:09:50;;;;;;;0.63;0.60;;;25.40;99.90;;;;;;5113785;28;20243;-70
2023/04/07 05:12:17;;;;;;;6.23;1.10;;;25.50;99.90;;;;;;5112817;28;20565;-71
2023/04/07 05:14:45;;;;;;;3.23;1.03;;;25.30;99.90;;;;;;5113758;28;20261;-71
2023/04/07 05:17:13;;;;;;;2.63;0.90;;;25.20;99.90;;;;;;5113729;28;20252;-71
2023/04/07 05:19:41;;;;;;;1.57;0.83;;;25.20;99.90;;;;;;5113828;28;20197;-71
2023/04/07 05:22:08;;;;;;;2.50;0.70;;;25.30;99.90;;;;;;5112522;28;20220;-69
2023/04/07 05:24:36;;;;;;;1.90;0.77;;;25.30;99.90;;;;;;5113575;28;20550;-68
2023/04/07 05:27:04;;;;;;;1.93;0.67;;;25.10;99.90;;;;;;5112395;28;20227;-70
2023/04/07 05:29:32;;;;;;;1.43;0.80;;;25.00;99.90;;;;;;5113553;28;20596;-69
2023/04/07 05:32:00;;;;;;;3.60;0.60;;;25.00;99.90;;;;;;5113636;28;20214;-69
2023/04/07 05:34:28;;;;;;;1.17;0.70;;;25.20;99.90;;;;;;5113627;27;20188;-69
2023/04/07 05:36:56;;;;;;;3.13;0.90;;;25.30;99.90;;;;;;5112393;28;20649;-70
2023/04/07 05:39:24;;;;;;;1.07;0.60;;;25.30;99.90;;;;;;5113648;28;20637;-69
2023/04/07 05:41:56;;;;;;;2.57;0.60;;;25.40;99.90;;;;;;5113755;28;20636;-70
2023/04/07 05:44:24;;;;;;;3.93;1.07;;;25.40;99.90;;;;;;5113437;28;20175;-70
2023/04/07 05:46:52;;;;;;;1.00;0.80;;;25.40;99.90;;;;;;5113739;28;20198;-70
2023/04/07 05:49:19;;;;;;;3.53;1.03;;;25.30;99.90;;;;;;5113470;28;20201;-71
2023/04/07 05:51:47;;;;;;;3.00;1.03;;;25.10;99.90;;;;;;5113441;28;20212;-72
2023/04/07 05:54:15;;;;;;;3.63;0.83;;;24.90;99.90;;;;;;5113310;28;20504;-68
2023/04/07 05:56:43;;;;;;;2.87;1.00;;;24.70;99.90;;;;;;5113299;28;20207;-69
2023/04/07 05:59:10;;;;;;;2.10;0.93;;;24.50;99.90;;;;;;5113400;28;20175;-70
2023/04/07 06:01:39;;;;;;;1.53;0.73;;;24.40;99.90;;;;;;5112007;28;20186;-70
2023/04/07 06:04:07;;;;;;;0.90;0.70;;;24.30;99.90;;;;;;5116416;28;20181;-70
2023/04/07 06:06:35;;;;;;;1.33;0.77;;;24.20;99.90;;;;;;5117604;28;20221;-70
2023/04/07 06:09:03;;;;;;;1.50;0.60;;;24.00;99.90;;;;;;5117631;27;20175;-70
2023/04/07 06:11:31;;;;;;;0.97;0.70;;;23.90;99.90;;;;;;5117399;28;20209;-68
2023/04/07 06:13:58;;;;;;;2.33;0.90;;;23.90;99.90;;;;;;5117524;28;20173;-70
2023/04/07 06:16:27;;;;;;;2.53;1.03;;;24.00;99.90;;;;;;5117239;28;20227;-71
2023/04/07 06:18:54;;;;;;;3.83;1.03;;;24.00;99.90;;;;;;5116086;28;20553;-70
2023/04/07 06:21:22;;;;;;;2.53;0.90;;;23.90;99.90;;;;;;5117443;27;20177;-69
2023/04/07 06:23:50;;;;;;;0.90;0.80;;;23.80;99.90;;;;;;5117051;28;20217;-69
2023/04/07 06:26:18;;;;;;;0.77;0.63;;;23.90;99.90;;;;;;5117219;28;20174;-69
2023/04/07 06:28:46;;;;;;;1.60;0.90;;;23.90;99.90;;;;;;5117103;28;20174;-69
2023/04/07 06:31:14;;;;;;;2.63;1.00;;;23.80;99.90;;;;;;5117118;28;20236;-69
2023/04/07 06:33:42;;;;;;;0.67;0.60;;;23.80;99.90;;;;;;5117205;28;20173;-71
2023/04/07 06:36:10;;;;;;;1.73;0.93;;;23.80;99.90;;;;;;5116857;28;20709;-68
2023/04/07 06:38:38;;;;;;;2.77;0.80;;;23.70;99.90;;;;;;5117097;28;20178;-69
2023/04/07 06:41:10;;;;;;;1.97;0.90;;;23.60;99.90;;;;;;5116750;28;20266;-69
2023/04/07 06:43:38;;;;;;;2.90;0.93;;;23.50;99.90;;;;;;5117257;28;20241;-69
2023/04/07 06:46:06;;;;;;;8.10;1.37;;;23.50;99.90;;;;;;5117023;28;20641;-69
2023/04/07 06:48:34;;;;;;;5.57;1.00;;;23.50;99.90;;;;;;5116862;28;20224;-69
2023/04/07 06:51:01;;;;;;;1.73;1.13;;;23.50;99.90;;;;;;5116681;28;20693;-69
2023/04/07 06:53:29;;;;;;;3.87;1.10;;;23.40;99.90;;;;;;5116912;28;20220;-69
2023/04/07 06:56:08;;;;;;;3.63;1.10;;;23.40;99.90;;;;;;5117047;28;20173;-68
2023/04/07 06:58:36;;;;;;;3.57;0.90;;;23.30;99.90;;;;;;5116882;28;20257;-68
2023/04/07 07:01:05;;;;;;;5.43;1.00;;;23.20;99.90;;;;;;5116589;28;20234;-68
2023/04/07 07:03:33;;;;;;;2.77;1.40;;;23.00;99.90;;;;;;5116714;28;20648;-68
2023/04/07 07:06:01;;;;;;;4.33;1.57;;;22.60;99.90;;;;;;5116600;28;20626;-67
2023/04/07 07:08:29;;;;;;;4.90;1.40;;;22.40;99.90;;;;;;5116539;28;20210;-68
2023/04/07 07:10:57;;;;;;;5.03;1.63;;;22.10;99.90;;;;;;5116538;28;20209;-68
2023/04/07 07:13:26;;;;;;;3.77;1.10;;;21.90;99.90;;;;;;5116542;28;20171;-68
2023/04/07 07:15:54;;;;;;;2.27;0.90;;;21.80;99.90;;;;;;5115806;28;20174;-68
2023/04/07 07:18:22;;;;;;;6.03;1.70;;;21.70;99.90;;;;;;5114420;28;20545;-71
2023/04/07 07:20:50;;;;;;;2.17;1.30;;;21.60;99.90;;;;;;5110497;28;20657;-73
2023/04/07 07:23:17;;;;;;;5.33;1.80;;;21.50;99.90;;;;;;5102961;28;20180;-71
2023/04/07 07:25:45;;;;;;;2.13;1.20;;;21.50;99.90;;;;;;5107853;28;20239;-73
2023/04/07 07:28:13;;;;;;;2.77;1.10;;;21.70;99.90;;;;;;5104396;28;20667;-74
2023/04/07 07:30:41;;;;;;;3.43;1.57;;;21.80;99.90;;;;;;5114344;27;20264;-76
2023/04/07 07:33:09;;;;;;;2.83;1.33;;;21.70;99.90;;;;;;5114608;28;20170;-73
2023/04/07 07:35:37;;;;;;;3.93;1.30;;;21.70;99.90;;;;;;5114349;28;20178;-73
2023/04/07 07:38:04;;;;;;;2.00;1.23;;;21.60;99.90;;;;;;5110517;28;20555;-73
2023/04/07 07:40:33;;;;;;;4.73;1.23;;;21.50;99.90;;;;;;5094289;28;20634;-76
2023/04/07 07:43:01;;;;;;;3.03;1.23;;;21.20;99.90;;;;;;5093993;28;20213;-74
2023/04/07 07:45:29;;;;;;;2.33;0.97;;;20.90;99.90;;;;;;5094278;28;20266;-75
2023/04/07 07:47:56;;;;;;;4.17;1.30;;;20.70;99.90;;;;;;5106204;28;20186;-75
2023/04/07 07:50:24;;;;;;;1.80;1.33;;;20.50;99.90;;;;;;5107384;28;20208;-74
2023/04/07 07:52:52;;;;;;;2.83;1.50;;;20.50;99.90;;;;;;5094205;28;20245;-74
2023/04/07 07:55:20;;;;;;;2.03;1.63;;;20.50;99.90;;;;;;5094069;28;20219;-75
2023/04/07 07:57:48;;;;;;;2.53;1.60;;;20.40;99.90;;;;;;5093597;28;20182;-74
2023/04/07 08:00:16;;;;;;;2.80;1.63;;;20.40;99.90;;;;;;5093964;28;20180;-76
2023/04/07 08:02:43;;;;;;;3.83;1.70;;;20.40;99.90;;;;;;5093819;28;20183;-75
2023/04/07 08:05:11;;;;;;;3.53;2.03;;;20.50;99.90;;;;;;5105530;28;20176;-76
2023/04/07 08:07:39;;;;;;;4.00;2.37;;;20.50;99.90;;;;;;5109057;28;20180;-74
2023/04/07 08:10:07;;;;;;;5.00;2.50;;;20.50;99.90;;;;;;5114040;28;20256;-74
2023/04/07 08:12:35;;;;;;;2.57;2.00;;;20.50;99.90;;;;;;5099123;28;20195;-76
2023/04/07 08:15:03;;;;;;;2.37;1.70;;;20.60;99.90;;;;;;5087613;28;20552;-75
2023/04/07 08:17:31;;;;;;;3.23;2.00;;;20.60;99.90;;;;;;5093298;28;20693;-75
2023/04/07 08:20:00;;;;;;;5.13;1.87;;;20.60;99.90;;;;;;5102547;28;20291;-77
2023/04/07 08:22:28;;;;;;;2.47;1.40;;;20.60;99.90;;;;;;5097452;28;20196;-74
2023/04/07 08:24:55;;;;;;;1.97;1.33;;;20.50;99.90;;;;;;5104428;28;20183;-74
2023/04/07 08:27:23;;;;;;;2.20;1.47;;;20.50;99.90;;;;;;5098074;28;20645;-75
2023/04/07 08:30:11;;;;;;;1.67;1.37;;;20.60;99.90;;;;;;5096173;28;20177;-72
2023/04/07 08:32:44;;;;;;;2.60;1.60;;;20.60;99.90;;;;;;5111654;28;20240;-74
2023/04/07 08:35:12;;;;;;;4.90;1.93;;;20.60;99.90;;;;;;5113389;28;20274;-74
2023/04/07 08:37:43;;;;;;;4.00;2.10;;;20.70;99.90;;;;;;5113056;28;20177;-75
2023/04/07 08:40:12;;;;;;;4.50;2.20;;;20.70;99.90;;;;;;5113659;28;20235;-75
2023/04/07 08:42:46;;;;;;;3.13;2.27;;;20.80;99.90;;;;;;5113600;28;20647;-75
2023/04/07 08:45:15;;;;;;;4.70;2.23;;;21.00;99.90;;;;;;5113110;28;20195;-73
2023/04/07 08:47:43;;;;;;;3.83;2.20;;;21.20;99.90;;;;;;5113437;28;20202;-75
2023/04/07 08:50:12;;;;;;;5.20;2.30;;;21.10;99.90;;;;;;5113231;28;20189;-75
2023/04/07 08:52:50;;;;;;;3.83;2.20;;;21.10;99.90;;;;;;5111679;28;20187;-75
2023/04/07 08:55:18;;;;;;;2.30;1.73;;;21.20;99.90;;;;;;5112078;28;20182;-75
2023/04/07 08:57:46;;;;;;;3.63;1.53;;;21.30;99.90;;;;;;5113280;28;20183;-75
2023/04/07 09:00:15;;;;;;;2.13;1.43;;;21.30;99.90;;;;;;5112992;28;20276;-75
2023/04/07 09:02:44;;;;;;;2.23;1.30;;;21.20;99.90;;;;;;5113260;28;20185;-74
2023/04/07 09:05:16;;;;;;;2.83;1.83;;;21.30;99.90;;;;;;5112266;28;20286;-71
2023/04/07 09:07:44;;;;;;;3.20;1.83;;;21.30;99.90;;;;;;5112358;28;20190;-75
2023/04/07 09:10:12;;;;;;;3.23;2.00;;;21.30;99.90;;;;;;5112500;27;20174;-74
2023/04/07 09:12:40;;;;;;;5.17;2.17;;;21.30;99.90;;;;;;5112495;28;20175;-75
2023/04/07 09:15:08;;;;;;;4.70;1.70;;;21.30;99.90;;;;;;5111892;28;20167;-74
2023/04/07 09:17:36;;;;;;;3.80;1.40;;;21.30;99.90;;;;;;5112261;28;20222;-75
2023/04/07 09:20:04;;;;;;;1.63;1.50;;;21.30;99.90;;;;;;5112370;28;20714;-74
2023/04/07 09:22:42;;;;;;;4.17;1.73;;;21.20;99.90;;;;;;5113265;28;20200;-74
2023/04/07 09:25:18;;;;;;;2.33;1.50;;;21.20;99.90;;;;;;5113584;28;20189;-75
2023/04/07 09:28:00;;;;;;;3.90;1.53;;;21.10;99.90;;;;;;5113598;28;20171;-74
2023/04/07 09:30:29;;;;;;;2.63;1.43;;;21.10;99.90;;;;;;5113242;27;20571;-74
2023/04/07 09:32:58;;;;;;;4.13;1.70;;;21.20;99.90;;;;;;5113527;28;20174;-73
2023/04/07 09:35:27;;;;;;;3.13;1.40;;;21.20;99.90;;;;;;5113401;28;20167;-74
2023/04/07 09:38:08;;;;;;;3.27;1.50;;;21.30;99.90;;;;;;5113253;28;20182;-74
2023/04/07 09:40:37;;;;;;;3.30;1.40;;;21.30;99.90;;;;;;5112998;28;20178;-74
2023/04/07 09:43:06;;;;;;;1.53;1.27;;;21.30;99.90;;;;;;5111983;28;20194;-74
2023/04/07 09:45:34;;;;;;;1.60;1.13;;;21.30;99.90;;;;;;5111852;28;20273;-74
2023/04/07 09:48:07;;;;;;;2.27;1.20;;;21.30;99.90;;;;;;5106973;28;20190;-74
2023/04/07 09:50:39;;;;;;;2.33;1.60;;;21.20;99.90;;;;;;5113025;28;20213;-74
2023/04/07 09:53:07;;;;;;;3.33;1.33;;;21.00;99.90;;;;;;5111926;28;20181;-75
2023/04/07 09:55:36;;;;;;;2.13;1.20;;;20.90;99.90;;;;;;5106445;28;20231;-72
2023/04/07 09:58:05;;;;;;;1.47;1.10;;;20.80;99.90;;;;;;5102927;28;20183;-73
2023/04/07 10:00:33;;;;;;;3.47;1.23;;;20.80;99.90;;;;;;5113053;28;20215;-74
2023/04/07 10:03:02;;;;;;;2.77;1.40;;;20.80;99.90;;;;;;5113030;28;20171;-74
2023/04/07 10:05:30;;;;;;;2.10;1.30;;;20.90;99.90;;;;;;5112784;28;20648;-73
2023/04/07 10:08:00;;;;;;;1.90;0.80;;;21.00;99.90;;;;;;5113098;28;20166;-71
2023/04/07 10:10:30;;;;;;;2.70;0.83;;;20.70;99.90;;;;;;5112860;28;20229;-71
2023/04/07 10:12:58;;;;;;;5.80;0.80;;;20.40;99.90;;;;;;5113187;28;20180;-73
2023/04/07 10:15:26;;;;;;;1.63;1.30;;;19.80;99.90;;;;;;5105738;28;20183;-72
2023/04/07 10:17:55;;;;;;;3.77;1.00;;;19.30;99.90;;;;;;5097638;28;20312;-70
2023/04/07 10:20:23;;;;;;;2.13;1.07;;;19.00;99.90;;;;;;5092646;28;20203;-74
2023/04/07 10:22:54;;;;;;;3.60;1.00;;;18.60;99.90;;;;;;5091308;28;20179;-70
2023/04/07 10:25:28;;;;;;;5.77;1.27;;;18.40;99.90;;;;;;5092701;28;20630;-74
2023/04/07 10:28:08;;;;;;;4.70;1.60;;;18.00;99.90;;;;;;5092217;28;20175;-70
2023/04/07 10:30:40;;;;;;;4.20;1.40;;;17.70;99.90;;;;;;5092208;28;20221;-70
2023/04/07 10:33:07;;;;;;;4.53;1.43;;;17.70;99.90;;;;;;5092608;28;20177;-70
2023/04/07 10:36:06;;;;;;;2.03;1.20;;;17.60;99.90;;;;;;5090705;28;20180;-72
2023/04/07 10:38:34;;;;;;;5.60;0.90;;;17.50;99.90;;;;;;5092350;28;20727;-69
2023/04/07 10:41:35;;;;;;;3.23;1.00;;;17.50;99.90;;;;;;5092401;28;20168;-68
2023/04/07 10:44:30;;;;;;;4.10;1.30;;;17.50;99.90;;;;;;5091115;28;20261;-69
2023/04/07 10:47:00;;;;;;;1.60;1.03;;;17.40;99.90;;;;;;5092421;28;20182;-68
2023/04/07 10:49:29;;;;;;;2.83;1.00;;;17.40;99.90;;;;;;5091066;28;20184;-68
2023/04/07 10:52:24;;;;;;;6.37;1.57;;;17.30;99.90;;;;;;5096090;28;20230;-68
2023/04/07 10:55:30;;;;;;;1.93;1.20;;;17.20;99.90;;;;;;5095753;28;20176;-69
2023/04/07 10:58:27;;;;;;;6.80;1.30;;;17.20;99.90;;;;;;5096026;28;20178;-69
2023/04/07 11:01:13;;;;;;;2.67;1.23;;;17.20;99.90;;;;;;5094368;28;20172;-68
2023/04/07 11:03:54;;;;;;;1.20;1.00;;;17.10;99.90;;;;;;5094563;28;20175;-70
2023/04/07 11:06:22;;;;;;;2.63;1.30;;;17.10;99.90;;;;;;5095804;28;20241;-69
2023/04/07 11:08:50;;;;;;;3.33;1.93;;;17.00;99.90;;;;;;5094684;28;20548;-69
2023/04/07 11:11:38;;;;;;;5.03;1.83;;;17.00;99.90;;;;;;5094306;28;20214;-69
2023/04/07 11:14:06;;;;;;;6.07;2.20;;;16.90;99.90;;;;;;5095273;28;20195;-69
2023/04/07 11:16:39;;;;;;;4.30;1.93;;;16.90;99.90;;;;;;5095080;28;20231;-69
2023/04/07 11:19:07;;;;;;;2.27;1.73;;;16.90;99.90;;;;;;5095724;28;20206;-72
2023/04/07 11:21:35;;;;;;;2.87;1.97;;;16.90;99.90;;;;;;5095376;28;20190;-70
2023/04/07 11:24:03;;;;;;;3.20;2.10;;;17.00;99.90;;;;;;5094920;28;20273;-70
2023/04/07 11:26:38;;;;;;;4.07;2.47;;;16.90;99.90;;;;;;5095379;28;20254;-71
2023/04/07 11:29:06;;;;;;;5.17;2.80;;;16.90;99.90;;;;;;5095134;28;20224;-72
2023/04/07 11:31:34;;;;;;;3.93;2.87;;;16.90;99.90;;;;;;5094858;28;20265;-70
2023/04/07 11:34:04;;;;;;;2.93;2.63;;;16.90;99.90;;;;;;5095185;28;20169;-71
2023/04/07 11:36:40;;;;;;;4.27;3.00;;;16.90;99.90;;;;;;5095085;28;20266;-69
2023/04/07 11:39:22;;;;;;;7.00;3.30;;;17.00;99.90;;;;;;5095205;28;20270;-70
2023/04/07 11:41:51;;;;;;;4.33;3.17;;;17.00;99.90;;;;;;5094852;28;20186;-75
2023/04/07 11:44:19;;;;;;;8.57;3.80;;;17.00;99.90;;;;;;5094849;28;20221;-72
2023/04/07 11:46:55;;;;;;;9.50;4.00;;;16.90;99.90;;;;;;5094634;28;20184;-74
2023/04/07 11:49:24;;;;;;;6.27;3.50;;;17.00;99.90;;;;;;5093452;28;20175;-73
2023/04/07 11:52:03;;;;;;;5.20;2.93;;;17.00;99.90;;;;;;5094451;28;20217;-75
2023/04/07 11:54:46;;;;;;;3.30;2.87;;;16.90;99.90;;;;;;5094812;28;20175;-75
2023/04/07 11:57:22;;;;;;;6.03;3.40;;;16.80;99.90;;;;;;5094801;28;20662;-76
2023/04/07 11:59:50;;;;;;;2.67;2.30;;;16.80;99.90;;;;;;5094447;28;20177;-73
2023/04/07 12:02:34;;;;;;;7.87;3.10;;;16.70;99.90;;;;;;5094458;28;20240;-75
2023/04/07 12:05:02;;;;;;;2.90;2.17;;;16.60;99.90;;;;;;5094385;28;20206;-72
2023/04/07 12:07:30;;;;;;;7.13;2.97;;;16.50;99.90;;;;;;5094591;28;20171;-76
2023/04/07 12:10:17;;;;;;;4.07;2.53;;;16.40;99.90;;;;;;5094085;28;20199;-75
2023/04/07 12:12:46;;;;;;;5.37;2.33;;;16.30;99.90;;;;;;5094446;28;20186;-76
2023/04/07 12:15:14;;;;;;;6.40;2.10;;;16.30;99.90;;;;;;5094279;28;20661;-76
2023/04/07 12:17:50;;;;;;;7.53;1.90;;;16.30;99.90;;;;;;5093804;28;20586;-76
2023/04/07 12:20:18;;;;;;;3.60;2.20;;;16.20;99.90;;;;;;5102653;28;20197;-73
2023/04/07 12:22:46;;;;;;;6.60;2.40;;;16.20;99.90;;;;;;5107743;28;20233;-76
2023/04/07 12:25:14;;;;;;;4.23;2.70;;;16.10;99.90;;;;;;5094339;28;20214;-75
2023/04/07 12:27:42;;;;;;;4.27;2.37;;;16.00;99.90;;;;;;5094303;28;20181;-76
2023/04/07 12:30:11;;;;;;;6.43;3.10;;;16.00;99.90;;;;;;5094230;28;20232;-75
2023/04/07 12:32:39;;;;;;;5.07;3.50;;;16.00;99.90;;;;;;5094120;28;20337;-75
2023/04/07 12:35:07;;;;;;;4.53;2.93;;;16.00;99.90;;;;;;5092737;28;20254;-76
2023/04/07 12:37:36;;;;;;;4.23;2.90;;;15.90;99.90;;;;;;5093893;28;20739;-75
2023/04/07 12:40:04;;;;;;;6.17;2.93;;;15.90;99.90;;;;;;5093977;28;20187;-75
2023/04/07 12:42:31;;;;;;;5.83;3.10;;;15.90;99.90;;;;;;5101959;28;20187;-75
2023/04/07 12:44:59;;;;;;;4.17;2.93;;;15.90;99.90;;;;;;5106004;28;20190;-74
2023/04/07 12:47:27;;;;;;;3.50;2.50;;;15.80;99.90;;;;;;5102799;28;20185;-75
2023/04/07 12:49:55;;;;;;;4.13;2.40;;;15.80;99.90;;;;;;5103746;28;20183;-74
2023/04/07 12:52:22;;;;;;;5.17;2.87;;;15.70;99.90;;;;;;5099122;28;20222;-74
2023/04/07 12:54:51;;;;;;;4.73;2.87;;;15.70;99.90;;;;;;5095326;28;20175;-76
2023/04/07 12:57:19;;;;;;;4.87;2.97;;;15.70;99.90;;;;;;5097971;28;20182;-77
2023/04/07 12:59:48;;;;;;;5.40;3.40;;;15.70;99.90;;;;;;5112538;28;20211;-75
2023/04/07 13:02:17;;;;;;;8.87;3.50;;;15.70;99.90;;;;;;5099125;28;20198;-75